sensor_id;sensor_type;location;lat;lon;timestamp;pressure;altitude;pressure_sealevel;temperature;humidity
48555;BME280;34336;48.270;16.716;2022-08-02T00:00:10;74925.69;;;18.16;58.00
48555;BME280;34336;48.270;16.716;2022-08-02T00:02:41;74931.47;;;18.16;58.14
48555;BME280;34336;48.270;16.716;2022-08-02T00:05:09;74937.25;;;18.16;58.09
48555;BME280;34336;48.270;16.716;2022-08-02T00:07:36;74948.81;;;18.16;58.78
48555;BME280;34336;48.270;16.716;2022-08-02T00:10:09;74941.09;;;18.16;58.57
48555;BME280;34336;48.270;16.716;2022-08-02T00:12:36;74950.75;;;18.16;59.02
48555;BME280;34336;48.270;16.716;2022-08-02T00:15:05;74937.25;;;18.16;58.70
48555;BME280;34336;48.270;16.716;2022-08-02T00:17:33;74941.09;;;18.16;58.73
48555;BME280;34336;48.270;16.716;2022-08-02T00:19:59;74952.66;;;18.16;59.20
48555;BME280;34336;48.270;16.716;2022-08-02T00:22:27;74956.53;;;18.16;59.84
48555;BME280;34336;48.270;16.716;2022-08-02T00:24:54;74964.22;;;18.16;60.04
48555;BME280;34336;48.270;16.716;2022-08-02T00:27:21;74968.06;;;18.16;60.17
48555;BME280;34336;48.270;16.716;2022-08-02T00:29:48;74985.41;;;18.16;60.60
48555;BME280;34336;48.270;16.716;2022-08-02T00:32:21;74991.19;;;18.16;60.80
48555;BME280;34336;48.270;16.716;2022-08-02T00:34:49;75004.66;;;18.16;60.90
48555;BME280;34336;48.270;16.716;2022-08-02T00:37:15;75016.22;;;18.16;61.14
48555;BME280;34336;48.270;16.716;2022-08-02T00:39:42;75025.84;;;18.16;61.24
48555;BME280;34336;48.270;16.716;2022-08-02T00:42:09;75045.13;;;18.16;61.65
48555;BME280;34336;48.270;16.716;2022-08-02T00:44:40;75048.97;;;18.16;62.30
48555;BME280;34336;48.270;16.716;2022-08-02T00:47:06;75054.75;;;18.16;62.47
48555;BME280;34336;48.270;16.716;2022-08-02T00:49:33;75070.16;;;18.16;62.44
48555;BME280;34336;48.270;16.716;2022-08-02T00:52:00;75075.94;;;18.16;62.53
48555;BME280;34336;48.270;16.716;2022-08-02T00:54:27;75091.34;;;18.16;62.90
48555;BME280;34336;48.270;16.716;2022-08-02T00:56:54;75102.91;;;18.16;63.21
48555;BME280;34336;48.270;16.716;2022-08-02T00:59:21;75106.75;;;18.16;63.26
48555;BME280;34336;48.270;16.716;2022-08-02T01:01:48;75110.63;;;18.16;63.40
48555;BME280;34336;48.270;16.716;2022-08-02T01:04:26;75122.16;;;18.16;63.38
48555;BME280;34336;48.270;16.716;2022-08-02T01:06:59;75126.03;;;18.16;63.74
48555;BME280;34336;48.270;16.716;2022-08-02T01:09:26;75127.94;;;18.16;63.57
48555;BME280;34336;48.270;16.716;2022-08-02T01:11:53;75129.88;;;18.16;63.56
48555;BME280;34336;48.270;16.716;2022-08-02T01:14:20;75129.88;;;18.16;63.64
48555;BME280;34336;48.270;16.716;2022-08-02T01:16:59;75135.66;;;18.16;63.58
48555;BME280;34336;48.270;16.716;2022-08-02T01:19:39;75141.44;;;18.16;63.45
48555;BME280;34336;48.270;16.716;2022-08-02T01:22:17;75149.13;;;18.16;63.67
48555;BME280;34336;48.270;16.716;2022-08-02T01:25:28;75149.13;;;18.16;63.86
48555;BME280;34336;48.270;16.716;2022-08-02T01:30:56;75158.78;;;18.16;63.83
48555;BME280;34336;48.270;16.716;2022-08-02T01:33:31;75160.69;;;18.16;63.76
48555;BME280;34336;48.270;16.716;2022-08-02T01:36:02;75164.53;;;18.16;63.99
48555;BME280;34336;48.270;16.716;2022-08-02T01:38:38;75170.31;;;18.16;64.23
48555;BME280;34336;48.270;16.716;2022-08-02T01:41:09;75164.53;;;18.16;64.42
48555;BME280;34336;48.270;16.716;2022-08-02T01:43:39;75172.25;;;18.16;64.71
48555;BME280;34336;48.270;16.716;2022-08-02T01:46:08;75168.41;;;18.16;64.36
48555;BME280;34336;48.270;16.716;2022-08-02T01:48:36;75179.94;;;18.16;64.66
48555;BME280;34336;48.270;16.716;2022-08-02T01:51:05;75179.94;;;18.16;64.59
48555;BME280;34336;48.270;16.716;2022-08-02T01:53:34;75176.09;;;18.16;64.40
48555;BME280;34336;48.270;16.716;2022-08-02T01:56:03;75176.09;;;18.16;64.56
48555;BME280;34336;48.270;16.716;2022-08-02T01:58:34;75176.09;;;18.16;64.50
48555;BME280;34336;48.270;16.716;2022-08-02T02:01:03;75176.09;;;18.16;64.38
48555;BME280;34336;48.270;16.716;2022-08-02T02:03:32;75178.03;;;18.16;64.54
48555;BME280;34336;48.270;16.716;2022-08-02T02:06:08;75181.88;;;18.16;64.48
48555;BME280;34336;48.270;16.716;2022-08-02T02:08:39;75179.94;;;18.16;64.75
48555;BME280;34336;48.270;16.716;2022-08-02T02:11:07;75185.72;;;18.16;64.58
48555;BME280;34336;48.270;16.716;2022-08-02T02:13:57;75199.22;;;18.16;64.83
48555;BME280;34336;48.270;16.716;2022-08-02T02:16:24;75206.91;;;18.16;64.57
48555;BME280;34336;48.270;16.716;2022-08-02T02:18:53;75210.78;;;18.16;64.31
48555;BME280;34336;48.270;16.716;2022-08-02T02:21:20;75203.06;;;18.16;64.42
48555;BME280;34336;48.270;16.716;2022-08-02T02:23:47;75203.06;;;18.16;64.19
48555;BME280;34336;48.270;16.716;2022-08-02T02:26:17;75201.16;;;18.16;64.06
48555;BME280;34336;48.270;16.716;2022-08-02T02:28:58;75197.28;;;18.16;63.98
48555;BME280;34336;48.270;16.716;2022-08-02T02:31:28;75195.38;;;18.16;64.04
48555;BME280;34336;48.270;16.716;2022-08-02T02:34:02;75206.91;;;18.16;64.57
48555;BME280;34336;48.270;16.716;2022-08-02T02:36:32;75222.34;;;18.16;64.75
48555;BME280;34336;48.270;16.716;2022-08-02T02:39:02;75226.19;;;18.16;65.08
48555;BME280;34336;48.270;16.716;2022-08-02T02:41:39;75230.03;;;18.16;65.35
48555;BME280;34336;48.270;16.716;2022-08-02T02:44:10;75237.75;;;18.16;65.55
48555;BME280;34336;48.270;16.716;2022-08-02T02:46:37;75253.16;;;18.16;65.73
48555;BME280;34336;48.270;16.716;2022-08-02T02:49:07;75268.56;;;18.16;65.78
48555;BME280;34336;48.270;16.716;2022-08-02T02:51:38;75268.56;;;18.16;66.12
48555;BME280;34336;48.270;16.716;2022-08-02T02:54:08;75272.41;;;18.16;66.23
48555;BME280;34336;48.270;16.716;2022-08-02T02:56:57;75276.28;;;18.16;66.53
48555;BME280;34336;48.270;16.716;2022-08-02T02:59:25;75280.13;;;18.16;66.57
48555;BME280;34336;48.270;16.716;2022-08-02T03:01:53;75278.19;;;18.16;66.73
48555;BME280;34336;48.270;16.716;2022-08-02T03:04:24;75289.75;;;18.16;66.64
48555;BME280;34336;48.270;16.716;2022-08-02T03:07:02;75285.91;;;18.16;66.74
48555;BME280;34336;48.270;16.716;2022-08-02T03:09:29;75291.69;;;18.16;66.91
48555;BME280;34336;48.270;16.716;2022-08-02T03:11:56;75287.81;;;18.16;66.67
48555;BME280;34336;48.270;16.716;2022-08-02T03:14:23;75295.53;;;18.16;66.54
48555;BME280;34336;48.270;16.716;2022-08-02T03:16:52;75289.75;;;18.16;66.90
48555;BME280;34336;48.270;16.716;2022-08-02T03:19:21;75291.69;;;18.16;66.96
48555;BME280;34336;48.270;16.716;2022-08-02T03:21:49;75295.53;;;18.16;66.78
48555;BME280;34336;48.270;16.716;2022-08-02T03:24:24;75303.25;;;18.16;66.78
48555;BME280;34336;48.270;16.716;2022-08-02T03:26:54;75301.31;;;18.16;67.42
48555;BME280;34336;48.270;16.716;2022-08-02T03:29:21;75309.00;;;18.16;67.51
48555;BME280;34336;48.270;16.716;2022-08-02T03:31:48;75318.66;;;18.16;67.68
48555;BME280;34336;48.270;16.716;2022-08-02T03:34:15;75326.34;;;18.16;68.16
48555;BME280;34336;48.270;16.716;2022-08-02T03:36:47;75332.13;;;18.16;67.99
48555;BME280;34336;48.270;16.716;2022-08-02T03:39:14;75334.06;;;18.16;68.15
48555;BME280;34336;48.270;16.716;2022-08-02T03:41:42;75341.75;;;18.16;68.24
48555;BME280;34336;48.270;16.716;2022-08-02T03:44:10;75345.63;;;18.16;68.26
48555;BME280;34336;48.270;16.716;2022-08-02T03:46:38;75353.31;;;18.16;68.41
48555;BME280;34336;48.270;16.716;2022-08-02T03:49:08;75330.19;;;18.16;67.84
48555;BME280;34336;48.270;16.716;2022-08-02T03:51:36;75305.16;;;18.16;67.04
48555;BME280;34336;48.270;16.716;2022-08-02T03:54:03;75303.25;;;18.16;66.83
48555;BME280;34336;48.270;16.716;2022-08-02T03:56:30;75297.47;;;18.16;66.83
48555;BME280;34336;48.270;16.716;2022-08-02T03:59:09;75268.56;;;18.16;66.16
48555;BME280;34336;48.270;16.716;2022-08-02T04:01:36;75195.38;;;18.16;64.29
48555;BME280;34336;48.270;16.716;2022-08-02T04:04:05;75072.09;;;18.16;61.14
48555;BME280;34336;48.270;16.716;2022-08-02T04:06:32;74910.28;;;18.16;57.04
48555;BME280;34336;48.270;16.716;2022-08-02T04:08:59;74783.16;;;18.16;53.95
48555;BME280;34336;48.270;16.716;2022-08-02T04:11:26;74825.53;;;18.16;53.89
48555;BME280;34336;48.270;16.716;2022-08-02T04:14:07;74879.47;;;18.16;55.27
48555;BME280;34336;48.270;16.716;2022-08-02T04:16:40;74738.88;;;18.16;52.85
48555;BME280;34336;48.270;16.716;2022-08-02T04:19:09;74605.97;;;18.16;50.19
48555;BME280;34336;48.270;16.716;2022-08-02T04:21:43;74405.69;;;18.16;46.46
48555;BME280;34336;48.270;16.716;2022-08-02T04:24:21;74259.34;;;18.16;43.88
48555;BME280;34336;48.270;16.716;2022-08-02T04:26:55;74184.22;;;18.16;42.46
48555;BME280;34336;48.270;16.716;2022-08-02T04:29:32;74039.81;;;18.16;40.53
48555;BME280;34336;48.270;16.716;2022-08-02T04:31:59;73862.66;;;18.16;37.89
48555;BME280;34336;48.270;16.716;2022-08-02T04:34:27;73802.97;;;18.16;36.82
48555;BME280;34336;48.270;16.716;2022-08-02T04:36:53;73935.84;;;18.16;37.79
48555;BME280;34336;48.270;16.716;2022-08-02T04:39:21;73897.31;;;18.16;37.63
48555;BME280;34336;48.270;16.716;2022-08-02T04:41:48;73851.09;;;18.16;37.23
48555;BME280;34336;48.270;16.716;2022-08-02T04:44:17;73893.47;;;18.16;37.70
48555;BME280;34336;48.270;16.716;2022-08-02T04:46:45;73887.69;;;18.16;37.12
48555;BME280;34336;48.270;16.716;2022-08-02T04:49:12;74064.84;;;18.16;39.41
48555;BME280;34336;48.270;16.716;2022-08-02T04:51:41;73820.28;;;18.16;37.06
48555;BME280;34336;48.270;16.716;2022-08-02T04:54:09;73795.28;;;18.16;35.94
48555;BME280;34336;48.270;16.716;2022-08-02T04:56:37;73939.69;;;18.16;38.29
48555;BME280;34336;48.270;16.716;2022-08-02T04:59:05;73880.00;;;18.16;37.22
48555;BME280;34336;48.270;16.716;2022-08-02T05:01:32;73837.63;;;18.16;37.10
48555;BME280;34336;48.270;16.716;2022-08-02T05:04:01;73718.25;;;18.16;35.21
48555;BME280;34336;48.270;16.716;2022-08-02T05:06:28;73718.25;;;18.16;35.75
48555;BME280;34336;48.270;16.716;2022-08-02T05:08:55;73727.88;;;18.16;35.88
48555;BME280;34336;48.270;16.716;2022-08-02T05:11:22;73673.97;;;18.16;34.54
48555;BME280;34336;48.270;16.716;2022-08-02T05:14:03;73500.69;;;18.16;33.43
48555;BME280;34336;48.270;16.716;2022-08-02T05:16:30;73377.47;;;18.16;31.99
48555;BME280;34336;48.270;16.716;2022-08-02T05:19:01;73096.41;;;18.16;29.97
48555;BME280;34336;48.270;16.716;2022-08-02T05:21:29;73106.03;;;18.16;29.59
48555;BME280;34336;48.270;16.716;2022-08-02T05:23:56;73333.19;;;18.16;31.77
48555;BME280;34336;48.270;16.716;2022-08-02T05:26:23;73496.84;;;18.16;32.24
48555;BME280;34336;48.270;16.716;2022-08-02T05:28:50;73419.81;;;18.16;32.20
48555;BME280;34336;48.270;16.716;2022-08-02T05:31:17;73492.97;;;18.16;32.85
48555;BME280;34336;48.270;16.716;2022-08-02T05:33:44;73724.03;;;18.16;35.08
48555;BME280;34336;48.270;16.716;2022-08-02T05:36:11;73477.59;;;18.16;32.89
48555;BME280;34336;48.270;16.716;2022-08-02T05:38:37;73458.31;;;18.16;32.76
48555;BME280;34336;48.270;16.716;2022-08-02T05:41:05;73664.34;;;18.16;33.95
48555;BME280;34336;48.270;16.716;2022-08-02T05:43:32;73697.06;;;18.16;34.50
48555;BME280;34336;48.270;16.716;2022-08-02T05:45:59;73804.91;;;18.16;36.09
48555;BME280;34336;48.270;16.716;2022-08-02T05:48:26;74032.09;;;18.16;38.51
48555;BME280;34336;48.270;16.716;2022-08-02T05:51:37;73854.97;;;18.16;36.14
48555;BME280;34336;48.270;16.716;2022-08-02T05:54:09;73895.41;;;18.16;36.61
48555;BME280;34336;48.270;16.716;2022-08-02T05:56:45;73700.91;;;18.16;34.64
48555;BME280;34336;48.270;16.716;2022-08-02T05:59:21;73427.53;;;18.16;31.94
48555;BME280;34336;48.270;16.716;2022-08-02T06:01:55;73731.72;;;18.16;34.76
48555;BME280;34336;48.270;16.716;2022-08-02T06:04:32;73596.94;;;18.16;33.97
48555;BME280;34336;48.270;16.716;2022-08-02T06:07:03;73396.72;;;18.16;31.76
48555;BME280;34336;48.270;16.716;2022-08-02T06:09:33;73186.88;;;18.16;29.88
48555;BME280;34336;48.270;16.716;2022-08-02T06:12:04;73335.13;;;18.16;31.24
48555;BME280;34336;48.270;16.716;2022-08-02T06:14:33;73523.78;;;18.16;32.33
48555;BME280;34336;48.270;16.716;2022-08-02T06:17:04;73483.34;;;18.16;32.26
48555;BME280;34336;48.270;16.716;2022-08-02T06:19:32;73383.25;;;18.16;31.44
48555;BME280;34336;48.270;16.716;2022-08-02T06:22:18;73385.16;;;18.16;31.31
48555;BME280;34336;48.270;16.716;2022-08-02T06:25:03;73204.19;;;18.16;29.75
48555;BME280;34336;48.270;16.716;2022-08-02T06:27:30;73111.78;;;18.16;29.18
48555;BME280;34336;48.270;16.716;2022-08-02T06:29:58;73082.91;;;18.16;28.41
48555;BME280;34336;48.270;16.716;2022-08-02T06:32:30;73169.56;;;18.16;29.18
48555;BME280;34336;48.270;16.716;2022-08-02T06:34:57;73348.59;;;18.16;30.95
48555;BME280;34336;48.270;16.716;2022-08-02T06:40:05;73242.69;;;18.16;29.90
48555;BME280;34336;48.270;16.716;2022-08-02T06:42:48;73223.44;;;18.16;29.86
48555;BME280;34336;48.270;16.716;2022-08-02T06:45:17;73296.59;;;18.16;30.41
48555;BME280;34336;48.270;16.716;2022-08-02T06:47:44;73566.16;;;18.16;32.38
48555;BME280;34336;48.270;16.716;2022-08-02T06:50:11;73758.69;;;18.16;34.08
48555;BME280;34336;48.270;16.716;2022-08-02T06:52:38;73797.19;;;18.16;33.64
48555;BME280;34336;48.270;16.716;2022-08-02T06:55:05;73828.00;;;18.16;34.27
48555;BME280;34336;48.270;16.716;2022-08-02T06:57:32;73856.88;;;18.16;35.10
48555;BME280;34336;48.270;16.716;2022-08-02T06:59:59;73878.06;;;18.16;35.46
48555;BME280;34336;48.270;16.716;2022-08-02T07:02:29;73916.56;;;18.16;36.33
48555;BME280;34336;48.270;16.716;2022-08-02T07:04:56;73868.44;;;18.16;35.48
48555;BME280;34336;48.270;16.716;2022-08-02T07:07:22;73983.97;;;18.16;36.72
48555;BME280;34336;48.270;16.716;2022-08-02T07:09:50;74059.06;;;18.16;37.56
48555;BME280;34336;48.270;16.716;2022-08-02T07:12:28;74120.69;;;18.16;37.62
48555;BME280;34336;48.270;16.716;2022-08-02T07:14:57;74251.63;;;18.16;40.18
48555;BME280;34336;48.270;16.716;2022-08-02T07:17:25;74276.66;;;18.16;41.13
48555;BME280;34336;48.270;16.716;2022-08-02T07:19:52;74261.25;;;18.16;41.45
48555;BME280;34336;48.270;16.716;2022-08-02T07:22:19;74024.41;;;18.16;37.74
48555;BME280;34336;48.270;16.716;2022-08-02T07:24:53;74001.28;;;18.16;37.88
48555;BME280;34336;48.270;16.716;2022-08-02T07:27:20;73843.41;;;18.16;35.19
48555;BME280;34336;48.270;16.716;2022-08-02T07:29:47;73695.16;;;18.16;33.53
48555;BME280;34336;48.270;16.716;2022-08-02T07:32:15;73612.34;;;18.16;32.63
48555;BME280;34336;48.270;16.716;2022-08-02T07:34:43;73647.00;;;18.16;33.37
48555;BME280;34336;48.270;16.716;2022-08-02T07:37:19;73702.84;;;18.16;33.77
48555;BME280;34336;48.270;16.716;2022-08-02T07:40:06;73735.59;;;18.16;34.83
48555;BME280;34336;48.270;16.716;2022-08-02T07:42:41;73824.16;;;18.16;35.56
48555;BME280;34336;48.270;16.716;2022-08-02T07:45:08;73885.75;;;18.16;36.31
48555;BME280;34336;48.270;16.716;2022-08-02T07:47:36;73820.28;;;18.16;35.88
48555;BME280;34336;48.270;16.716;2022-08-02T07:50:05;73562.28;;;18.16;32.39
48555;BME280;34336;48.270;16.716;2022-08-02T07:52:32;73708.63;;;18.16;33.54
48555;BME280;34336;48.270;16.716;2022-08-02T07:54:59;73818.38;;;18.16;34.74
48555;BME280;34336;48.270;16.716;2022-08-02T07:57:26;73982.03;;;18.16;37.12
48555;BME280;34336;48.270;16.716;2022-08-02T07:59:53;73901.16;;;18.16;36.15
48555;BME280;34336;48.270;16.716;2022-08-02T08:02:20;74105.28;;;18.16;39.06
48555;BME280;34336;48.270;16.716;2022-08-02T08:04:47;74022.47;;;18.16;37.63
48555;BME280;34336;48.270;16.716;2022-08-02T08:07:14;74184.22;;;18.16;39.18
48555;BME280;34336;48.270;16.716;2022-08-02T08:09:41;74234.31;;;18.16;40.32
48555;BME280;34336;48.270;16.716;2022-08-02T08:12:10;74236.22;;;18.16;41.08
48555;BME280;34336;48.270;16.716;2022-08-02T08:14:38;74324.81;;;18.16;41.73
48555;BME280;34336;48.270;16.716;2022-08-02T08:17:07;74243.94;;;18.16;40.90
48555;BME280;34336;48.270;16.716;2022-08-02T08:19:34;74043.66;;;18.16;37.62
48555;BME280;34336;48.270;16.716;2022-08-02T08:22:18;73991.66;;;18.16;37.70
48555;BME280;34336;48.270;16.716;2022-08-02T08:24:46;73930.06;;;18.16;36.06
48555;BME280;34336;48.270;16.716;2022-08-02T08:27:14;74022.47;;;18.16;37.82
48555;BME280;34336;48.270;16.716;2022-08-02T08:29:41;74147.66;;;18.16;39.50
48555;BME280;34336;48.270;16.716;2022-08-02T08:32:09;74232.38;;;18.16;40.67
48555;BME280;34336;48.270;16.716;2022-08-02T08:34:46;74193.88;;;18.16;39.81
48555;BME280;34336;48.270;16.716;2022-08-02T08:37:14;74128.38;;;18.16;38.89
48555;BME280;34336;48.270;16.716;2022-08-02T08:39:45;74132.25;;;18.16;39.39
48555;BME280;34336;48.270;16.716;2022-08-02T08:42:28;74020.56;;;18.16;38.55
48555;BME280;34336;48.270;16.716;2022-08-02T08:44:57;74020.56;;;18.16;38.27
48555;BME280;34336;48.270;16.716;2022-08-02T08:47:35;73951.22;;;18.16;38.55
48555;BME280;34336;48.270;16.716;2022-08-02T08:50:11;74132.25;;;18.16;39.37
48555;BME280;34336;48.270;16.716;2022-08-02T08:52:56;74251.63;;;18.16;40.71
48555;BME280;34336;48.270;16.716;2022-08-02T08:55:26;74136.09;;;18.16;39.04
48555;BME280;34336;48.270;16.716;2022-08-02T08:57:57;74126.47;;;18.16;38.42
48555;BME280;34336;48.270;16.716;2022-08-02T09:00:24;74143.78;;;18.16;38.51
48555;BME280;34336;48.270;16.716;2022-08-02T09:02:52;74078.31;;;18.16;37.86
48555;BME280;34336;48.270;16.716;2022-08-02T09:05:18;74053.28;;;18.16;38.50
48555;BME280;34336;48.270;16.716;2022-08-02T09:07:51;74037.88;;;18.16;37.30
48555;BME280;34336;48.270;16.716;2022-08-02T09:13:23;74066.78;;;18.16;37.77
48555;BME280;34336;48.270;16.716;2022-08-02T09:16:10;74064.84;;;18.16;37.70
48555;BME280;34336;48.270;16.716;2022-08-02T09:18:44;74047.50;;;18.16;37.65
48555;BME280;34336;48.270;16.716;2022-08-02T09:21:14;74082.16;;;18.16;38.08
48555;BME280;34336;48.270;16.716;2022-08-02T09:23:47;74024.41;;;18.16;36.91
48555;BME280;34336;48.270;16.716;2022-08-02T09:26:16;74062.91;;;18.16;37.33
48555;BME280;34336;48.270;16.716;2022-08-02T09:28:46;74051.38;;;18.16;37.33
48555;BME280;34336;48.270;16.716;2022-08-02T09:31:21;74151.50;;;18.16;39.09
48555;BME280;34336;48.270;16.716;2022-08-02T09:33:56;74139.94;;;18.16;37.80
48555;BME280;34336;48.270;16.716;2022-08-02T09:36:24;74045.59;;;18.16;36.62
48555;BME280;34336;48.270;16.716;2022-08-02T09:39:03;74082.16;;;18.16;37.20
48555;BME280;34336;48.270;16.716;2022-08-02T09:41:33;74103.34;;;18.16;37.70
48555;BME280;34336;48.270;16.716;2022-08-02T09:44:02;74122.63;;;18.16;38.35
48555;BME280;34336;48.270;16.716;2022-08-02T09:46:35;74105.28;;;18.16;38.84
48555;BME280;34336;48.270;16.716;2022-08-02T09:49:08;74101.44;;;18.16;38.67
48555;BME280;34336;48.270;16.716;2022-08-02T09:54:27;73997.44;;;18.16;37.33
48555;BME280;34336;48.270;16.716;2022-08-02T09:56:57;73970.50;;;18.16;36.28
48555;BME280;34336;48.270;16.716;2022-08-02T09:59:25;73976.25;;;18.16;36.95
48555;BME280;34336;48.270;16.716;2022-08-02T10:01:54;74078.31;;;18.16;38.17
48555;BME280;34336;48.270;16.716;2022-08-02T10:04:30;73985.91;;;18.16;37.09
48555;BME280;34336;48.270;16.716;2022-08-02T10:07:18;73905.03;;;18.16;38.57
48555;BME280;34336;48.270;16.716;2022-08-02T10:09:48;73853.03;;;18.16;36.15
48555;BME280;34336;48.270;16.716;2022-08-02T10:12:15;73889.63;;;18.16;36.81
48555;BME280;34336;48.270;16.716;2022-08-02T10:14:44;73926.19;;;18.16;37.30
48555;BME280;34336;48.270;16.716;2022-08-02T10:17:11;74007.06;;;18.16;37.98
48555;BME280;34336;48.270;16.716;2022-08-02T10:19:38;73970.50;;;18.16;37.67
48555;BME280;34336;48.270;16.716;2022-08-02T10:22:25;73931.97;;;18.16;37.42
48555;BME280;34336;48.270;16.716;2022-08-02T10:24:52;73928.13;;;18.16;36.69
48555;BME280;34336;48.270;16.716;2022-08-02T10:27:20;73885.75;;;18.16;36.49
48555;BME280;34336;48.270;16.716;2022-08-02T10:29:48;73905.03;;;18.16;36.35
48555;BME280;34336;48.270;16.716;2022-08-02T10:32:35;73901.16;;;18.16;35.98
48555;BME280;34336;48.270;16.716;2022-08-02T10:35:12;73928.13;;;18.16;34.08
48555;BME280;34336;48.270;16.716;2022-08-02T10:37:52;73866.50;;;18.16;34.43
48555;BME280;34336;48.270;16.716;2022-08-02T10:40:20;73847.25;;;18.16;35.52
48555;BME280;34336;48.270;16.716;2022-08-02T10:42:56;73826.06;;;18.16;34.43
48555;BME280;34336;48.270;16.716;2022-08-02T10:45:27;73781.78;;;18.16;33.22
48555;BME280;34336;48.270;16.716;2022-08-02T10:48:11;73795.28;;;18.16;35.31
48555;BME280;34336;48.270;16.716;2022-08-02T10:53:33;73897.31;;;18.16;35.75
48555;BME280;34336;48.270;16.716;2022-08-02T10:56:06;73926.19;;;18.16;36.75
48555;BME280;34336;48.270;16.716;2022-08-02T10:58:34;73899.25;;;18.16;36.04
48555;BME280;34336;48.270;16.716;2022-08-02T11:01:28;73912.72;;;18.16;36.75
48555;BME280;34336;48.270;16.716;2022-08-02T11:04:06;73860.72;;;18.16;36.02
48555;BME280;34336;48.270;16.716;2022-08-02T11:07:09;73872.28;;;18.16;34.50
48555;BME280;34336;48.270;16.716;2022-08-02T11:09:36;73978.19;;;18.16;35.17
48555;BME280;34336;48.270;16.716;2022-08-02T11:12:06;74047.50;;;18.16;36.00
48555;BME280;34336;48.270;16.716;2022-08-02T11:14:35;74066.78;;;18.16;35.45
48555;BME280;34336;48.270;16.716;2022-08-02T11:19:31;74001.28;;;18.16;34.29
48555;BME280;34336;48.270;16.716;2022-08-02T11:22:13;73895.41;;;18.16;33.59
48555;BME280;34336;48.270;16.716;2022-08-02T11:24:51;73964.72;;;18.16;34.85
48555;BME280;34336;48.270;16.716;2022-08-02T11:27:19;73895.41;;;18.16;33.45
48555;BME280;34336;48.270;16.716;2022-08-02T11:29:47;73939.69;;;18.16;34.08
48555;BME280;34336;48.270;16.716;2022-08-02T11:32:20;73818.38;;;18.16;33.24
48555;BME280;34336;48.270;16.716;2022-08-02T11:34:56;73835.69;;;18.16;34.45
48555;BME280;34336;48.270;16.716;2022-08-02T11:37:34;73806.81;;;18.16;33.26
48555;BME280;34336;48.270;16.716;2022-08-02T11:40:08;73822.22;;;18.16;33.70
48555;BME280;34336;48.270;16.716;2022-08-02T11:42:46;73818.38;;;18.16;33.92
48555;BME280;34336;48.270;16.716;2022-08-02T11:45:16;73870.34;;;18.16;33.58
48555;BME280;34336;48.270;16.716;2022-08-02T11:47:51;73905.03;;;18.16;33.98
48555;BME280;34336;48.270;16.716;2022-08-02T11:50:21;73928.13;;;18.16;34.13
48555;BME280;34336;48.270;16.716;2022-08-02T11:52:56;73820.28;;;18.16;33.50
48555;BME280;34336;48.270;16.716;2022-08-02T11:55:28;73793.34;;;18.16;33.03
48555;BME280;34336;48.270;16.716;2022-08-02T11:58:00;73791.41;;;18.16;32.29
48555;BME280;34336;48.270;16.716;2022-08-02T12:00:31;73766.38;;;18.16;33.54
48555;BME280;34336;48.270;16.716;2022-08-02T12:02:57;73783.72;;;18.16;32.49
48555;BME280;34336;48.270;16.716;2022-08-02T12:05:25;73812.59;;;18.16;32.39
48555;BME280;34336;48.270;16.716;2022-08-02T12:08:15;73777.94;;;18.16;31.81
48555;BME280;34336;48.270;16.716;2022-08-02T12:10:51;73841.47;;;18.16;32.21
48555;BME280;34336;48.270;16.716;2022-08-02T12:13:18;73747.13;;;18.16;32.66
48555;BME280;34336;48.270;16.716;2022-08-02T12:15:46;73824.16;;;18.16;32.41
48555;BME280;34336;48.270;16.716;2022-08-02T12:18:21;73760.59;;;18.16;32.07
48555;BME280;34336;48.270;16.716;2022-08-02T12:21:24;73828.00;;;18.16;33.21
48555;BME280;34336;48.270;16.716;2022-08-02T12:23:52;73835.69;;;18.16;32.75
48555;BME280;34336;48.270;16.716;2022-08-02T12:26:27;73793.34;;;18.16;32.42
48555;BME280;34336;48.270;16.716;2022-08-02T12:28:55;73739.44;;;18.16;31.18
48555;BME280;34336;48.270;16.716;2022-08-02T12:31:40;73724.03;;;18.16;31.04
48555;BME280;34336;48.270;16.716;2022-08-02T12:34:25;73749.06;;;18.16;31.24
48555;BME280;34336;48.270;16.716;2022-08-02T12:37:07;73841.47;;;18.16;32.29
48555;BME280;34336;48.270;16.716;2022-08-02T12:42:08;73762.53;;;18.16;32.00
48555;BME280;34336;48.270;16.716;2022-08-02T12:44:48;73731.72;;;18.16;30.07
48555;BME280;34336;48.270;16.716;2022-08-02T12:47:15;73743.28;;;18.16;30.94
48555;BME280;34336;48.270;16.716;2022-08-02T12:49:42;73747.13;;;18.16;30.80
48555;BME280;34336;48.270;16.716;2022-08-02T12:52:22;73708.63;;;18.16;30.38
48555;BME280;34336;48.270;16.716;2022-08-02T12:54:50;73704.78;;;18.16;30.96
48555;BME280;34336;48.270;16.716;2022-08-02T12:57:18;73700.91;;;18.16;31.13
48555;BME280;34336;48.270;16.716;2022-08-02T12:59:51;73708.63;;;18.16;31.43
48555;BME280;34336;48.270;16.716;2022-08-02T13:02:18;73683.59;;;18.16;30.73
48555;BME280;34336;48.270;16.716;2022-08-02T13:04:47;73704.78;;;18.16;30.09
48555;BME280;34336;48.270;16.716;2022-08-02T13:07:16;73764.47;;;18.16;30.08
48555;BME280;34336;48.270;16.716;2022-08-02T13:09:43;73891.53;;;18.16;30.72
48555;BME280;34336;48.270;16.716;2022-08-02T13:12:11;73949.31;;;18.16;32.09
48555;BME280;34336;48.270;16.716;2022-08-02T13:14:39;73868.44;;;18.16;30.94
48555;BME280;34336;48.270;16.716;2022-08-02T13:17:11;73812.59;;;18.16;31.10
48555;BME280;34336;48.270;16.716;2022-08-02T13:19:38;73760.59;;;18.16;30.12
48555;BME280;34336;48.270;16.716;2022-08-02T13:22:06;73747.13;;;18.16;30.40
48555;BME280;34336;48.270;16.716;2022-08-02T13:24:36;73812.59;;;18.16;31.26
48555;BME280;34336;48.270;16.716;2022-08-02T13:27:26;73766.38;;;18.16;30.97
48555;BME280;34336;48.270;16.716;2022-08-02T13:29:55;73785.63;;;18.16;31.47